This is the latest recevied weather packets stored in our database for station/object AD8BV. If no packets are shown the sender has not sent any weather packets the latest 1 day(s).
| Time | Temp. | Humidity | Pressure | Rain* | Wind** | Luminosity | Snow |
|---|---|---|---|---|---|---|---|
| 1778066502 | 4.44° C | 79% | 1012.4 hPa | 0 mm | - | 21 W/m² | - |
| 1778065897 | 3.33° C | 87% | 1012.5 hPa | 0 mm | - | 27 W/m² | - |
| 1778064988 | 2.78° C | 87% | 1011.8 hPa | 0 mm | - | 11 W/m² | - |
| 1778064685 | 2.78° C | 87% | 1012.1 hPa | 0 mm | - | 8 W/m² | - |
| 1778061358 | 4.44° C | 77% | 1011.7 hPa | 0 mm | - | 0 W/m² | - |
| 1778061054 | 5° C | 75% | 1011.6 hPa | 0 mm | - | 0 W/m² | - |
| 1778059239 | 6.11° C | 68% | 1011.3 hPa | 0 mm | - | 0 W/m² | - |
| 1778058937 | 6.67° C | 71% | 1010.8 hPa | 0 mm | - | 0 W/m² | - |
| 1778058634 | 6.67° C | 69% | 1011 hPa | 0 mm | - | 0 W/m² | - |
| 1778058028 | 6.67° C | 67% | 1010.9 hPa | 0 mm | - | 0 W/m² | - |
| 1778056512 | 7.22° C | 67% | 1010.9 hPa | 0 mm | - | 0 W/m² | - |
| 1778054391 | 7.22° C | 66% | 1010.9 hPa | 0 mm | - | 0 W/m² | - |
| 1778053483 | 7.22° C | 65% | 1011 hPa | 0 mm | - | 0 W/m² | - |
| 1778053180 | 7.22° C | 66% | 1011 hPa | 0 mm | - | 0 W/m² | - |
| 1778052878 | 7.22° C | 65% | 1011.1 hPa | 0 mm | - | 0 W/m² | - |
| 1778052272 | 7.22° C | 66% | 1011.1 hPa | 0 mm | - | 0 W/m² | - |
| 1778051970 | 7.22° C | 67% | 1011.1 hPa | 0 mm | - | 0 W/m² | - |
| 1778051668 | 7.22° C | 67% | 1011 hPa | 0 mm | - | 0 W/m² | - |
| 1778051061 | 7.78° C | 66% | 1010.6 hPa | 0 mm | - | 0 W/m² | - |
| 1778050456 | 7.78° C | 67% | 1011.1 hPa | 0 mm | - | 0 W/m² | - |
| 1778049848 | 7.78° C | 67% | 1010.8 hPa | 0 mm | - | 0 W/m² | - |
| 1778048941 | 7.78° C | 66% | 1011.1 hPa | 0 mm | - | 0 W/m² | - |
| 1778048639 | 7.78° C | 66% | 1011.1 hPa | 0 mm | - | 0 W/m² | - |
| 1778046821 | 7.78° C | 66% | 1011.3 hPa | 0 mm | - | 0 W/m² | - |
| 1778045911 | 7.78° C | 66% | 1011.3 hPa | 0 mm | - | 0 W/m² | - |
* Rain latest hour (hover to see other rain measurements)
** Current wind speed in m/s (hover to see current wind gust speed)